Time;durP1;ratioP1;P1;durP2;ratioP2;P2;SDS_P1;SDS_P2;PMS_P1;PMS_P2;Temp;Humidity;BMP_temperature;BMP_pressure;BME280_temperature;BME280_humidity;BME280_pressure;Samples;Min_cycle;Max_cycle;Signal;HPM_P1;HPM_P2
2023/09/01 00:05:09;;;;;;;4.03;1.80;;;;;;;13.82;93.61;101275.66;20400532;28;19923;-62
2023/09/01 00:15:31;;;;;;;3.88;1.70;;;;;;;13.75;94.04;101255.97;20398396;28;20764;-61
2023/09/01 00:25:55;;;;;;;6.45;1.90;;;;;;;13.72;94.44;101263.88;20375847;29;20040;-62
2023/09/01 00:36:16;;;;;;;7.68;2.30;;;;;;;13.55;94.47;101258.44;20385683;29;20584;-62
2023/09/01 00:46:39;;;;;;;;;;;;;;;13.50;95.57;101265.53;20384184;29;20062;-61
2023/09/01 00:57:01;;;;;;;4.57;1.95;;;;;;;13.40;95.58;101258.97;20383251;29;20384;-62
2023/09/01 01:07:34;;;;;;;;;;;;;;;13.32;95.01;101271.38;20367102;29;20105;-62
2023/09/01 01:17:57;;;;;;;7.03;2.60;;;;;;;13.24;95.68;101266.44;20377769;29;19930;-61
2023/09/01 01:28:20;;;;;;;7.00;2.53;;;;;;;13.19;95.09;101281.34;20391086;29;20066;-61
2023/09/01 01:38:45;;;;;;;7.20;2.45;;;;;;;13.09;95.63;101275.59;20373490;29;20047;-62
2023/09/01 01:49:09;;;;;;;6.50;2.17;;;;;;;13.06;94.88;101286.09;20369187;29;20048;-61
2023/09/01 01:59:30;;;;;;;7.68;2.25;;;;;;;12.97;95.34;101280.31;20387173;29;20044;-62
2023/09/01 02:09:52;;;;;;;;;;;;;;;12.81;95.07;101285.16;20407687;29;20520;-59
2023/09/01 02:20:16;;;;;;;5.83;2.50;;;;;;;12.77;95.51;101280.97;20430940;28;20340;-59
2023/09/01 02:30:39;;;;;;;5.10;2.45;;;;;;;12.77;95.05;101293.94;20418041;29;20043;-59
2023/09/01 02:41:04;;;;;;;6.85;2.78;;;;;;;12.65;95.32;101289.16;20413614;29;20066;-62
2023/09/01 02:51:26;;;;;;;6.30;2.53;;;;;;;12.57;95.20;101292.84;20401112;28;20050;-62
2023/09/01 03:01:48;;;;;;;7.70;2.63;;;;;;;12.54;95.39;101286.03;20412623;29;20050;-63
2023/09/01 03:12:09;;;;;;;6.95;2.67;;;;;;;12.50;95.58;101289.63;20401633;28;20052;-62
2023/09/01 03:22:31;;;;;;;5.10;2.53;;;;;;;12.41;95.25;101289.91;20397424;29;20056;-61
2023/09/01 03:32:53;;;;;;;4.53;2.75;;;;;;;12.37;96.74;101293.47;20391402;29;20067;-62
2023/09/01 03:43:14;;;;;;;9.20;2.92;;;;;;;12.36;96.82;101298.72;20394338;29;20039;-62
2023/09/01 03:53:37;;;;;;;;;;;;;;;12.27;97.17;101292.03;20393250;29;20078;-62
2023/09/01 04:04:01;;;;;;;6.88;3.78;;;;;;;12.24;96.26;101296.47;20391918;29;20424;-62
2023/09/01 04:14:23;;;;;;;5.40;3.70;;;;;;;12.20;97.02;101306.06;20394181;29;20050;-62
2023/09/01 04:24:45;;;;;;;10.00;3.65;;;;;;;12.19;96.67;101300.94;20369057;29;20044;-62
2023/09/01 04:35:07;;;;;;;10.65;3.95;;;;;;;12.18;97.39;101300.09;20396907;29;20063;-62
2023/09/01 04:45:29;;;;;;;7.72;3.80;;;;;;;12.18;97.48;101313.06;20384059;29;20048;-62
2023/09/01 04:55:50;;;;;;;;;;;;;;;12.10;97.21;101315.03;20384278;29;20079;-61
2023/09/01 05:06:12;;;;;;;7.23;4.03;;;;;;;12.14;97.09;101321.84;20390658;29;20490;-61
2023/09/01 05:16:33;;;;;;;;;;;;;;;12.09;97.95;101326.28;20390610;29;20047;-62
2023/09/01 05:26:55;;;;;;;7.33;4.07;;;;;;;12.12;98.00;101342.63;20389800;29;19927;-62
2023/09/01 05:37:16;;;;;;;7.20;4.75;;;;;;;12.20;98.73;101347.59;20391921;29;20059;-62
2023/09/01 05:47:38;;;;;;;;;;;;;;;12.24;98.52;101349.22;20382718;29;20082;-62
2023/09/01 05:57:59;;;;;;;9.17;5.00;;;;;;;12.35;97.74;101357.53;20388100;29;19922;-61
2023/09/01 06:08:21;;;;;;;8.30;5.13;;;;;;;12.50;98.24;101364.91;20377232;29;20143;-62
2023/09/01 06:18:43;;;;;;;;;;;;;;;12.69;98.26;101367.81;20384648;29;20059;-60
2023/09/01 06:29:04;;;;;;;9.53;4.93;;;;;;;12.88;97.58;101382.78;20361511;29;20394;-59
2023/09/01 06:39:26;;;;;;;;;;;;;;;13.10;98.01;101385.59;20382251;29;20051;-60
2023/09/01 06:49:48;;;;;;;6.10;4.53;;;;;;;13.34;96.06;101391.75;20387922;28;20411;-60
2023/09/01 07:00:10;;;;;;;10.43;4.32;;;;;;;13.61;95.16;101403.84;20389490;29;20043;-62
2023/09/01 07:10:32;;;;;;;7.32;4.13;;;;;;;13.89;94.81;101389.00;20392132;29;20067;-62
2023/09/01 07:20:56;;;;;;;;;;;;;;;14.03;96.95;101386.75;20382973;29;20047;-62
2023/09/01 07:31:18;;;;;;;7.43;3.20;;;;;;;14.31;94.90;101387.53;20393100;28;19930;-62
2023/09/01 07:41:40;;;;;;;9.80;4.28;;;;;;;14.60;94.81;101384.69;20376936;29;20123;-60
2023/09/01 07:52:02;;;;;;;8.35;3.83;;;;;;;14.84;94.70;101390.72;20397520;29;20050;-62
2023/09/01 08:02:24;;;;;;;7.70;3.15;;;;;;;15.04;92.86;101394.25;20406686;29;20489;-60
2023/09/01 08:12:46;;;;;;;5.93;3.15;;;;;;;15.23;90.49;101403.97;20403586;29;20540;-62
2023/09/01 08:23:09;;;;;;;6.60;2.60;;;;;;;15.44;91.93;101397.94;20369231;29;20539;-60
2023/09/01 08:33:31;;;;;;;6.47;2.08;;;;;;;15.65;90.02;101391.81;20391468;29;20130;-60
2023/09/01 08:44:01;;;;;;;7.88;1.92;;;;;;;15.93;88.49;101394.97;20384812;28;20146;-60
2023/09/01 08:54:23;;;;;;;8.60;1.70;;;;;;;16.14;87.65;101383.56;20373503;29;20043;-61
2023/09/01 09:04:46;;;;;;;9.40;1.40;;;;;;;16.33;85.36;101383.59;20398547;29;20047;-60
2023/09/01 09:15:09;;;;;;;5.00;1.00;;;;;;;16.45;83.95;101391.72;20398526;29;20055;-60
2023/09/01 09:25:32;;;;;;;3.20;1.20;;;;;;;16.59;83.80;101391.16;20394421;29;20052;-61
2023/09/01 09:35:54;;;;;;;3.45;1.50;;;;;;;16.85;83.00;101391.63;20372589;29;20434;-61
2023/09/01 09:46:17;;;;;;;3.05;1.35;;;;;;;17.03;82.02;101393.38;20389866;29;20040;-62
2023/09/01 09:56:40;;;;;;;2.50;1.02;;;;;;;17.14;83.00;101400.69;20389572;29;20058;-62
2023/09/01 10:07:02;;;;;;;2.20;1.05;;;;;;;17.38;81.06;101412.59;20380222;29;20044;-62
2023/09/01 10:17:24;;;;;;;6.13;1.10;;;;;;;17.64;81.55;101414.81;20388400;29;20044;-60
2023/09/01 10:28:04;;;;;;;5.25;1.15;;;;;;;17.84;77.35;101429.53;20396294;29;20149;-60
2023/09/01 10:38:37;;;;;;;4.20;1.43;;;;;;;17.99;73.86;101431.38;20380971;29;20362;-62
2023/09/01 10:49:00;;;;;;;3.33;1.40;;;;;;;18.03;78.24;101432.91;20400195;29;20070;-62
2023/09/01 10:59:30;;;;;;;5.22;1.48;;;;;;;18.16;77.25;101441.84;20385654;28;20044;-62
2023/09/01 11:09:55;;;;;;;8.70;1.80;;;;;;;18.28;78.84;101437.72;20396590;29;20675;-62
2023/09/01 11:20:19;;;;;;;4.03;1.85;;;;;;;18.31;80.56;101424.50;20373267;29;20067;-62
2023/09/01 11:30:57;;;;;;;5.03;1.67;;;;;;;18.42;75.52;101433.50;20388912;28;20102;-62
2023/09/01 11:41:20;;;;;;;6.00;1.88;;;;;;;18.46;75.72;101437.66;20404680;29;20050;-63
2023/09/01 11:51:42;;;;;;;7.18;2.90;;;;;;;18.44;79.06;101433.44;20347661;29;20472;-62
2023/09/01 12:02:04;;;;;;;5.78;2.08;;;;;;;18.45;77.48;101441.22;20374721;29;20075;-62
2023/09/01 12:12:46;;;;;;;4.97;1.92;;;;;;;18.66;72.69;101442.69;20386030;28;20175;-63
2023/09/01 12:23:08;;;;;;;5.03;2.30;;;;;;;18.82;77.72;101448.81;20389151;29;20043;-62
2023/09/01 12:33:29;;;;;;;7.03;2.50;;;;;;;18.89;77.74;101434.44;20372556;29;20044;-62
2023/09/01 12:43:52;;;;;;;6.95;2.53;;;;;;;18.91;79.46;101437.81;20365377;29;20051;-62
2023/09/01 12:54:14;;;;;;;7.25;2.55;;;;;;;18.88;79.83;101437.97;20366128;28;20055;-62
2023/09/01 13:04:38;;;;;;;8.02;3.47;;;;;;;18.86;79.06;101439.81;20364172;29;20048;-63
2023/09/01 13:14:59;;;;;;;10.10;3.47;;;;;;;18.96;79.97;101446.28;20387118;29;20449;-62
2023/09/01 13:25:21;;;;;;;8.18;4.10;;;;;;;19.03;80.17;101445.00;20396333;29;20648;-62
2023/09/01 13:35:43;;;;;;;7.55;3.60;;;;;;;19.06;79.70;101452.69;20403428;28;20163;-62
2023/09/01 13:46:17;;;;;;;4.60;3.30;;;;;;;19.14;78.59;101454.09;20380875;29;20617;-62
2023/09/01 13:56:39;;;;;;;7.38;3.78;;;;;;;19.15;80.21;101445.25;20411820;28;20047;-62
2023/09/01 14:07:02;;;;;;;7.55;3.40;;;;;;;19.40;77.06;101442.97;20377112;29;20063;-62
2023/09/01 14:17:24;;;;;;;9.13;3.65;;;;;;;19.57;77.48;101448.13;20365319;29;20048;-62
2023/09/01 14:27:45;;;;;;;9.68;4.07;;;;;;;19.59;74.38;101441.00;20361699;29;20051;-61
2023/09/01 14:38:07;;;;;;;7.50;3.28;;;;;;;19.62;76.50;101430.31;20357248;29;20052;-62
2023/09/01 14:48:29;;;;;;;5.03;3.13;;;;;;;19.56;76.84;101441.16;20360142;29;20543;-62
2023/09/01 14:58:51;;;;;;;4.90;3.20;;;;;;;19.59;77.82;101451.53;20393141;29;20130;-62
2023/09/01 15:09:16;;;;;;;8.15;3.30;;;;;;;19.71;76.85;101451.66;20387985;29;20532;-62
2023/09/01 15:19:38;;;;;;;6.43;2.80;;;;;;;19.91;74.78;101447.84;20381650;29;20489;-62
2023/09/01 15:30:00;;;;;;;6.80;3.50;;;;;;;19.81;75.46;101442.28;20393727;29;20516;-62
2023/09/01 15:40:22;;;;;;;6.65;3.50;;;;;;;19.85;75.91;101440.34;20394820;29;20167;-62
2023/09/01 15:50:44;;;;;;;8.90;3.33;;;;;;;19.80;76.23;101455.53;20393090;29;20494;-62
2023/09/01 16:01:08;;;;;;;8.35;3.55;;;;;;;19.86;75.36;101460.44;20396104;29;20539;-62
2023/09/01 16:11:46;;;;;;;8.93;3.05;;;;;;;19.82;75.96;101465.00;20393217;28;20055;-62
2023/09/01 16:22:08;;;;;;;7.53;2.92;;;;;;;19.73;77.16;101475.19;20387307;29;20047;-62
2023/09/01 16:32:30;;;;;;;7.80;3.53;;;;;;;19.89;77.14;101481.25;20386059;29;20052;-62
2023/09/01 16:42:53;;;;;;;8.02;3.88;;;;;;;20.00;77.27;101469.19;20391683;29;20122;-62
2023/09/01 16:53:14;;;;;;;10.65;3.70;;;;;;;19.99;76.16;101474.53;20380227;29;20437;-62
2023/09/01 17:03:37;;;;;;;6.95;3.10;;;;;;;19.91;75.75;101490.75;20383987;28;20048;-62
2023/09/01 17:13:58;;;;;;;6.93;3.33;;;;;;;19.87;76.67;101504.13;20392063;29;20123;-62
2023/09/01 17:24:20;;;;;;;4.88;2.95;;;;;;;19.78;76.33;101523.06;20372014;29;20419;-62
2023/09/01 17:34:41;;;;;;;11.43;3.05;;;;;;;19.67;76.70;101512.31;20374455;29;20035;-62
2023/09/01 17:45:03;;;;;;;6.68;2.83;;;;;;;19.54;76.10;101517.41;20382235;29;20051;-62
2023/09/01 17:55:25;;;;;;;7.57;3.75;;;;;;;19.43;77.40;101535.53;20373987;29;20048;-62
2023/09/01 18:05:47;;;;;;;5.20;3.00;;;;;;;19.28;78.33;101546.03;20381037;29;20051;-62
2023/09/01 18:16:10;;;;;;;10.02;3.47;;;;;;;19.09;79.33;101556.66;20387905;29;20051;-62
2023/09/01 18:26:33;;;;;;;6.63;3.83;;;;;;;18.89;78.95;101567.34;20388858;29;20135;-61
2023/09/01 18:37:00;;;;;;;8.30;3.80;;;;;;;18.68;81.05;101584.22;20383701;29;20056;-62
2023/09/01 18:47:22;;;;;;;8.90;4.88;;;;;;;18.48;81.48;101600.94;20382971;29;20051;-61
2023/09/01 18:57:44;;;;;;;6.78;4.03;;;;;;;18.31;82.88;101614.03;20379102;29;20054;-61
2023/09/01 19:08:11;;;;;;;8.35;4.80;;;;;;;18.17;83.76;101621.69;20385561;29;20048;-61
2023/09/01 19:18:40;;;;;;;9.48;4.95;;;;;;;17.95;84.29;101641.97;20357818;29;20063;-62
2023/09/01 19:29:12;;;;;;;10.45;5.45;;;;;;;17.74;85.89;101650.84;20375097;29;20050;-62
2023/09/01 19:39:35;;;;;;;11.43;5.70;;;;;;;17.64;86.78;101649.56;20388908;28;20044;-62
2023/09/01 19:49:58;;;;;;;11.57;6.20;;;;;;;17.43;86.70;101647.91;20376755;29;20909;-61
2023/09/01 20:00:26;;;;;;;10.85;6.55;;;;;;;17.40;86.70;101668.97;20394275;28;20055;-61
2023/09/01 20:10:49;;;;;;;14.18;9.60;;;;;;;17.25;87.46;101665.25;20386767;29;20500;-61
2023/09/01 20:21:13;;;;;;;17.42;9.82;;;;;;;17.18;87.83;101678.72;20360304;29;20054;-62
2023/09/01 20:31:35;;;;;;;12.20;8.40;;;;;;;17.03;88.84;101688.88;20395016;28;20574;-61
2023/09/01 20:41:59;;;;;;;11.43;7.63;;;;;;;16.96;89.04;101697.91;20402267;29;21342;-61
2023/09/01 20:52:20;;;;;;;11.95;7.65;;;;;;;16.92;89.11;101717.25;20389533;28;20046;-61
2023/09/01 21:02:45;;;;;;;12.95;6.88;;;;;;;16.86;88.70;101722.78;20382502;28;20512;-62
2023/09/01 21:13:07;;;;;;;11.27;6.25;;;;;;;16.78;88.45;101737.06;20414039;28;20047;-61
2023/09/01 21:23:28;;;;;;;9.32;6.53;;;;;;;16.68;89.23;101736.56;20393610;29;20074;-61
2023/09/01 21:33:50;;;;;;;10.70;6.88;;;;;;;16.55;89.76;101737.16;20391849;29;20040;-61
2023/09/01 21:44:12;;;;;;;9.02;6.25;;;;;;;16.38;90.18;101757.81;20375629;29;20138;-61
2023/09/01 21:54:33;;;;;;;9.65;6.13;;;;;;;16.32;90.38;101764.13;20363891;29;20050;-61
2023/09/01 22:04:56;;;;;;;13.82;6.57;;;;;;;16.17;89.91;101775.16;20371677;29;20052;-61
2023/09/01 22:15:18;;;;;;;11.57;6.80;;;;;;;16.12;90.77;101787.53;20370311;29;20497;-61
2023/09/01 22:25:39;;;;;;;10.27;6.43;;;;;;;16.06;91.11;101800.81;20377427;29;20526;-61
2023/09/01 22:36:01;;;;;;;9.82;6.75;;;;;;;16.00;90.91;101809.72;20363642;29;20067;-61
2023/09/01 22:46:24;;;;;;;9.85;6.28;;;;;;;15.92;90.91;101800.47;20377832;29;20048;-62
2023/09/01 22:56:46;;;;;;;13.63;7.00;;;;;;;15.78;91.44;101807.97;20378803;29;20389;-62
2023/09/01 23:07:08;;;;;;;15.60;9.23;;;;;;;15.72;92.03;101802.97;20380881;29;20098;-61
2023/09/01 23:17:31;;;;;;;13.50;9.13;;;;;;;15.62;92.31;101817.25;20383260;29;20158;-61
2023/09/01 23:27:53;;;;;;;12.55;6.32;;;;;;;15.55;92.25;101820.94;20380344;28;20071;-62
2023/09/01 23:38:15;;;;;;;14.23;6.72;;;;;;;15.46;92.35;101831.69;20361690;29;20052;-62
2023/09/01 23:48:37;;;;;;;9.73;6.40;;;;;;;15.40;92.43;101842.34;20383686;29;20584;-62
2023/09/01 23:58:58;;;;;;;11.43;7.25;;;;;;;15.30;92.85;101841.78;20375913;29;20501;-61
